createdAt,value
2022-09-17T00:01:31.226Z,5.33
2022-09-17T00:04:02.096Z,5.50
2022-09-17T00:06:32.729Z,5.77
2022-09-17T00:09:00.330Z,5.67
2022-09-17T00:11:30.781Z,6.60
2022-09-17T00:14:01.267Z,5.90
2022-09-17T00:16:31.947Z,5.73
2022-09-17T00:19:00.953Z,6.13
2022-09-17T00:21:29.698Z,5.23
2022-09-17T00:24:00.385Z,6.37
2022-09-17T00:26:30.214Z,4.73
2022-09-17T00:28:59.430Z,6.10
2022-09-17T00:31:28.667Z,6.20
2022-09-17T00:33:56.874Z,7.40
2022-09-17T00:36:24.757Z,6.03
2022-09-17T00:38:53.152Z,4.47
2022-09-17T00:41:23.426Z,6.17
2022-09-17T00:43:53.707Z,5.60
2022-09-17T00:46:30.897Z,6.63
2022-09-17T00:49:02.134Z,6.40
2022-09-17T00:51:34.345Z,6.57
2022-09-17T00:54:04.765Z,6.90
2022-09-17T00:56:37.235Z,7.60
2022-09-17T00:59:05.390Z,6.50
2022-09-17T01:01:34.337Z,7.17
2022-09-17T01:04:02.050Z,6.30
2022-09-17T01:06:35.920Z,7.10
2022-09-17T01:09:26.205Z,6.00
2022-09-17T01:12:09.424Z,7.30
2022-09-17T01:14:50.308Z,7.07
2022-09-17T01:17:28.308Z,5.57
2022-09-17T01:20:25.952Z,5.37
2022-09-17T01:23:15.073Z,5.47
2022-09-17T01:25:53.497Z,4.33
2022-09-17T01:28:33.882Z,4.10
2022-09-17T01:31:20.843Z,4.27
2022-09-17T01:33:54.813Z,4.40
2022-09-17T01:36:37.107Z,4.37
2022-09-17T01:39:12.430Z,4.27
2022-09-17T01:41:45.051Z,4.13
2022-09-17T01:44:18.712Z,4.47
2022-09-17T01:46:53.832Z,5.30
2022-09-17T01:49:25.395Z,3.57
2022-09-17T01:51:56.155Z,4.43
2022-09-17T01:54:27.775Z,4.47
2022-09-17T01:57:02.341Z,3.80
2022-09-17T01:59:34.685Z,3.40
2022-09-17T02:02:11.320Z,3.03
2022-09-17T02:04:44.948Z,3.50
2022-09-17T02:07:20.601Z,3.30
2022-09-17T02:09:55.255Z,4.17
2022-09-17T02:12:31.628Z,3.30
2022-09-17T02:15:02.347Z,3.70
2022-09-17T02:17:38.530Z,3.77
2022-09-17T02:20:07.848Z,3.83
2022-09-17T02:22:43.716Z,3.83
2022-09-17T02:25:18.957Z,3.37
2022-09-17T02:27:56.148Z,2.40
2022-09-17T02:30:24.286Z,3.70
2022-09-17T02:32:55.093Z,3.27
2022-09-17T02:35:23.847Z,4.00
2022-09-17T02:37:53.268Z,3.13
2022-09-17T02:40:25.556Z,4.83
2022-09-17T02:43:09.601Z,4.13
2022-09-17T02:45:51.056Z,3.17
2022-09-17T02:48:35.677Z,3.43
2022-09-17T02:51:21.938Z,3.47
2022-09-17T02:53:59.290Z,3.90
2022-09-17T02:56:41.414Z,4.00
2022-09-17T02:59:19.883Z,3.80
2022-09-17T03:01:54.721Z,3.43
2022-09-17T03:04:27.766Z,4.80
2022-09-17T03:06:57.226Z,3.77
2022-09-17T03:09:28.326Z,3.40
2022-09-17T03:11:56.683Z,4.30
2022-09-17T03:14:24.795Z,4.50
2022-09-17T03:16:53.135Z,3.83
2022-09-17T03:19:21.099Z,4.67
2022-09-17T03:21:50.850Z,3.40
2022-09-17T03:24:18.934Z,3.90
2022-09-17T03:26:47.561Z,4.73
2022-09-17T03:29:15.527Z,4.23
2022-09-17T03:31:44.066Z,4.77
2022-09-17T03:34:12.215Z,4.37
2022-09-17T03:36:40.510Z,4.50
2022-09-17T03:39:09.950Z,4.13
2022-09-17T03:41:38.855Z,5.13
2022-09-17T03:44:06.951Z,4.97
2022-09-17T03:46:35.445Z,4.47
2022-09-17T03:49:03.512Z,6.80
2022-09-17T03:51:31.604Z,5.30
2022-09-17T03:53:59.648Z,4.60
2022-09-17T03:56:29.595Z,5.73
2022-09-17T03:58:59.850Z,5.30
2022-09-17T04:01:28.969Z,4.80
2022-09-17T04:03:56.881Z,4.97
2022-09-17T04:06:25.179Z,4.63
2022-09-17T04:08:53.122Z,4.87
2022-09-17T04:11:21.333Z,5.83
2022-09-17T04:13:50.524Z,5.13
2022-09-17T04:16:18.655Z,5.10
2022-09-17T04:18:46.504Z,5.43
2022-09-17T04:21:14.609Z,5.70
2022-09-17T04:23:42.400Z,5.10
2022-09-17T04:26:10.938Z,5.40
2022-09-17T04:28:38.653Z,5.33
2022-09-17T04:31:08.293Z,5.47
2022-09-17T04:33:37.456Z,6.40
2022-09-17T04:36:05.609Z,5.10
2022-09-17T04:38:33.527Z,5.80
2022-09-17T04:41:01.548Z,5.20
2022-09-17T04:43:29.203Z,5.20
2022-09-17T04:45:57.231Z,4.67
2022-09-17T04:48:26.257Z,4.60
2022-09-17T04:50:54.251Z,4.70
2022-09-17T04:53:21.946Z,5.20
2022-09-17T04:55:49.938Z,4.80
2022-09-17T04:58:17.823Z,6.20
2022-09-17T05:00:45.805Z,4.97
2022-09-17T05:03:13.476Z,4.77
2022-09-17T05:05:42.517Z,6.17
2022-09-17T05:08:10.218Z,4.60
2022-09-17T05:10:38.538Z,5.20
2022-09-17T05:13:06.325Z,4.80
2022-09-17T05:15:34.336Z,4.37
2022-09-17T05:18:02.013Z,3.43
2022-09-17T05:20:29.842Z,4.23
2022-09-17T05:22:58.817Z,4.20
2022-09-17T05:25:26.697Z,3.50
2022-09-17T05:27:56.222Z,3.23
2022-09-17T05:30:24.425Z,3.30
2022-09-17T05:33:00.016Z,3.23
2022-09-17T05:35:27.777Z,4.20
2022-09-17T05:38:00.416Z,2.60
2022-09-17T05:40:28.754Z,2.77
2022-09-17T05:42:59.680Z,3.10
2022-09-17T05:45:27.671Z,2.63
2022-09-17T05:47:59.822Z,3.37
2022-09-17T05:50:29.435Z,3.20
2022-09-17T05:52:57.493Z,2.80
2022-09-17T05:55:28.087Z,3.17
2022-09-17T05:57:56.121Z,2.73
2022-09-17T06:00:24.198Z,1.70
2022-09-17T06:02:55.969Z,2.17
2022-09-17T06:05:24.002Z,2.00
2022-09-17T06:07:52.304Z,2.60
2022-09-17T06:10:20.245Z,2.50
2022-09-17T06:12:49.309Z,2.10
2022-09-17T06:15:17.209Z,1.90
2022-09-17T06:17:44.923Z,1.90
2022-09-17T06:20:12.974Z,1.50
2022-09-17T06:22:40.640Z,1.60
2022-09-17T06:25:09.655Z,1.63
2022-09-17T06:27:37.404Z,1.70
2022-09-17T06:30:08.140Z,1.23
2022-09-17T06:32:35.851Z,1.40
2022-09-17T06:35:03.849Z,1.43
2022-09-17T06:37:33.805Z,1.70
2022-09-17T06:40:02.150Z,1.60
2022-09-17T06:42:30.077Z,1.50
2022-09-17T06:45:00.378Z,1.70
2022-09-17T06:47:31.157Z,1.20
2022-09-17T06:49:59.881Z,1.20
2022-09-17T06:52:30.039Z,1.27
2022-09-17T06:55:00.341Z,1.00
2022-09-17T06:57:30.370Z,1.33
2022-09-17T06:59:58.108Z,1.20
2022-09-17T07:02:25.959Z,0.80
2022-09-17T07:04:58.365Z,1.30
2022-09-17T07:07:26.281Z,1.00
2022-09-17T07:09:54.549Z,1.10
2022-09-17T07:12:25.373Z,0.90
2022-09-17T07:14:53.417Z,1.20
2022-09-17T07:17:21.593Z,0.90
2022-09-17T07:19:52.001Z,0.90
2022-09-17T07:22:21.360Z,1.13
2022-09-17T07:24:49.358Z,1.00
2022-09-17T07:27:17.054Z,4.70
2022-09-17T07:29:45.691Z,2.70
2022-09-17T07:32:13.434Z,3.60
2022-09-17T07:34:41.484Z,1.10
2022-09-17T07:37:09.125Z,1.23
2022-09-17T07:39:38.813Z,1.60
2022-09-17T07:42:06.833Z,1.30
2022-09-17T07:44:34.846Z,1.40
2022-09-17T07:47:02.633Z,1.63
2022-09-17T07:49:31.438Z,1.40
2022-09-17T07:52:00.544Z,1.10
2022-09-17T07:54:28.578Z,1.27
2022-09-17T07:56:57.762Z,0.87
2022-09-17T07:59:25.509Z,1.80
2022-09-17T08:01:53.211Z,1.30
2022-09-17T08:04:24.415Z,1.57
2022-09-17T08:06:52.103Z,2.33
2022-09-17T08:09:20.265Z,1.30
2022-09-17T08:11:56.382Z,2.10
2022-09-17T08:14:29.686Z,1.60
2022-09-17T08:16:57.934Z,1.90
2022-09-17T08:19:26.043Z,1.97
2022-09-17T08:21:54.045Z,2.13
2022-09-17T08:24:22.196Z,2.73
2022-09-17T08:26:49.873Z,1.77
2022-09-17T08:29:18.035Z,2.10
2022-09-17T08:31:47.372Z,2.83
2022-09-17T08:34:15.543Z,2.37
2022-09-17T08:36:43.467Z,1.90
2022-09-17T08:39:12.354Z,1.63
2022-09-17T08:41:55.015Z,1.40
2022-09-17T08:44:28.279Z,1.70
2022-09-17T08:47:06.454Z,1.33
2022-09-17T08:49:36.770Z,2.60
2022-09-17T08:52:31.401Z,2.53
2022-09-17T08:55:07.016Z,2.10
2022-09-17T08:57:48.716Z,3.00
2022-09-17T09:00:20.837Z,1.80
2022-09-17T09:03:05.866Z,1.90
2022-09-17T09:05:44.737Z,1.60
2022-09-17T09:08:19.765Z,2.57
2022-09-17T09:10:56.050Z,2.43
2022-09-17T09:13:31.590Z,2.70
2022-09-17T09:16:02.657Z,3.40
2022-09-17T09:18:36.813Z,2.50
2022-09-17T09:21:20.148Z,2.10
2022-09-17T09:23:54.698Z,1.97
2022-09-17T09:26:44.252Z,2.40
2022-09-17T09:29:23.006Z,2.40
2022-09-17T09:32:16.701Z,2.13
2022-09-17T09:34:59.591Z,2.30
2022-09-17T09:37:36.757Z,2.60
2022-09-17T09:40:31.353Z,2.23
2022-09-17T09:43:04.986Z,2.10
2022-09-17T09:45:49.110Z,2.20
2022-09-17T09:48:24.854Z,2.27
2022-09-17T09:56:08.382Z,2.20
2022-09-17T09:58:39.034Z,2.97
2022-09-17T10:01:17.393Z,4.30
2022-09-17T10:03:47.166Z,2.63
2022-09-17T10:06:18.517Z,2.60
2022-09-17T10:09:14.684Z,3.27
2022-09-17T10:11:44.230Z,2.77
2022-09-17T10:14:17.437Z,3.03
2022-09-17T10:16:45.394Z,3.53
2022-09-17T10:23:08.047Z,3.80
2022-09-17T10:25:36.747Z,2.83
2022-09-17T10:28:22.707Z,3.40
2022-09-17T10:30:57.817Z,3.50
2022-09-17T10:33:28.775Z,2.50
2022-09-17T10:36:02.690Z,2.87
2022-09-17T10:38:36.421Z,2.37
2022-09-17T10:41:15.858Z,1.97
2022-09-17T10:43:46.171Z,2.43
2022-09-17T10:46:18.146Z,2.13
2022-09-17T10:49:00.442Z,2.43
2022-09-17T10:51:29.004Z,2.17
2022-09-17T10:54:29.940Z,2.80
2022-09-17T10:57:01.637Z,3.10
2022-09-17T11:00:00.602Z,2.90
2022-09-17T11:02:55.616Z,2.30
2022-09-17T11:05:41.537Z,2.50
2022-09-17T11:08:18.053Z,2.70
2022-09-17T11:10:54.834Z,3.37
2022-09-17T11:13:34.054Z,1.90
2022-09-17T11:16:24.736Z,3.63
2022-09-17T11:19:02.227Z,2.63
2022-09-17T11:21:49.717Z,2.67
2022-09-17T11:24:46.025Z,3.10
2022-09-17T11:27:24.590Z,2.30
2022-09-17T11:30:06.340Z,1.90
2022-09-17T11:32:50.415Z,2.80
2022-09-17T11:35:21.916Z,1.90
2022-09-17T11:37:56.599Z,2.00
2022-09-17T11:40:41.913Z,2.20
2022-09-17T11:43:20.548Z,1.77
2022-09-17T11:45:58.676Z,1.90
2022-09-17T11:48:35.032Z,2.47
2022-09-17T11:51:08.533Z,1.60
2022-09-17T11:53:43.855Z,2.40
2022-09-17T11:56:19.298Z,2.70
2022-09-17T11:58:51.756Z,3.00
2022-09-17T12:01:26.963Z,2.60
2022-09-17T12:04:01.182Z,3.23
2022-09-17T12:06:39.776Z,2.70
2022-09-17T12:09:15.142Z,2.70
2022-09-17T12:11:50.509Z,2.77
2022-09-17T12:14:24.619Z,2.83
2022-09-17T12:16:58.874Z,3.20
2022-09-17T12:19:34.589Z,3.00
2022-09-17T12:22:07.265Z,2.33
2022-09-17T12:24:35.077Z,2.03
2022-09-17T12:27:22.256Z,2.77
2022-09-17T12:30:10.167Z,2.33
2022-09-17T12:33:04.031Z,5.40
2022-09-17T12:36:05.699Z,3.40
2022-09-17T12:39:02.792Z,1.57
2022-09-17T12:41:40.070Z,2.37
2022-09-17T12:44:24.785Z,2.87
2022-09-17T12:47:07.895Z,2.33
2022-09-17T12:49:58.706Z,1.77
2022-09-17T12:52:46.948Z,16.73
2022-09-17T12:55:28.526Z,4.67
2022-09-17T12:58:05.343Z,8.77
2022-09-17T13:00:39.294Z,13.53
2022-09-17T13:03:17.092Z,9.77
2022-09-17T13:06:09.086Z,3.30
2022-09-17T13:09:42.686Z,4.60
2022-09-17T13:12:19.623Z,8.43
2022-09-17T13:15:08.222Z,3.40
2022-09-17T13:17:46.664Z,2.87
2022-09-17T13:20:23.180Z,7.00
2022-09-17T13:22:54.297Z,3.17
2022-09-17T13:25:23.443Z,2.13
2022-09-17T13:28:07.404Z,1.60
2022-09-17T13:30:57.961Z,3.40
2022-09-17T13:34:05.860Z,3.10
2022-09-17T13:36:46.455Z,5.50
2022-09-17T13:39:38.829Z,1.60
2022-09-17T13:42:12.563Z,2.30
2022-09-17T13:44:46.038Z,1.63
2022-09-17T13:47:26.481Z,2.10
2022-09-17T13:49:59.515Z,2.47
2022-09-17T13:52:37.796Z,2.30
2022-09-17T13:55:07.938Z,1.73
2022-09-17T13:57:50.248Z,1.97
2022-09-17T14:00:52.981Z,2.27
2022-09-17T14:03:52.544Z,1.50
2022-09-17T14:06:59.062Z,3.17
2022-09-17T14:09:39.372Z,2.70
2022-09-17T14:15:58.253Z,2.40
2022-09-17T14:19:01.269Z,3.33
2022-09-17T14:21:33.045Z,2.63
2022-09-17T14:24:04.341Z,2.10
2022-09-17T14:27:04.891Z,1.90
2022-09-17T14:29:52.485Z,3.10
2022-09-17T14:32:33.628Z,2.33
2022-09-17T14:35:04.226Z,2.70
2022-09-17T14:38:34.647Z,2.50
2022-09-17T14:42:03.776Z,1.90
2022-09-17T14:45:33.953Z,1.10
2022-09-17T14:49:27.837Z,1.10
2022-09-17T14:52:55.421Z,1.03
2022-09-17T14:56:24.245Z,1.33
2022-09-17T14:59:53.035Z,2.03
2022-09-17T15:03:32.610Z,2.20
2022-09-17T15:07:09.058Z,1.70
2022-09-17T15:10:36.961Z,1.60
2022-09-17T15:14:07.422Z,1.30
2022-09-17T15:17:34.682Z,2.20
2022-09-17T15:21:07.044Z,1.80
2022-09-17T15:24:39.647Z,1.50
2022-09-17T15:28:18.322Z,2.13
2022-09-17T15:31:44.903Z,2.40
2022-09-17T15:35:23.891Z,2.00
2022-09-17T15:38:51.887Z,1.60
2022-09-17T15:42:29.157Z,2.40
2022-09-17T15:46:22.650Z,2.23
2022-09-17T15:50:04.424Z,2.10
2022-09-17T15:53:35.469Z,1.80
2022-09-17T15:57:04.860Z,2.30
2022-09-17T16:00:40.331Z,2.20
2022-09-17T16:04:53.298Z,2.00
2022-09-17T16:08:35.723Z,2.47
2022-09-17T16:12:22.538Z,2.47
2022-09-17T16:15:50.702Z,2.50
2022-09-17T16:19:17.409Z,2.47
2022-09-17T16:27:49.350Z,3.10
2022-09-17T16:31:17.575Z,3.27
2022-09-17T16:34:44.007Z,2.00
2022-09-17T16:38:12.050Z,2.17
2022-09-17T16:41:40.849Z,3.17
2022-09-17T16:45:09.331Z,6.07
2022-09-17T16:48:36.747Z,2.40
2022-09-17T16:52:06.451Z,3.37
2022-09-17T16:55:33.375Z,2.80
2022-09-17T16:58:59.747Z,1.60
2022-09-17T17:02:28.056Z,1.77
2022-09-17T17:05:54.387Z,2.10
2022-09-17T17:09:20.827Z,1.83
2022-09-17T17:12:47.202Z,1.77
2022-09-17T17:16:15.203Z,1.30
2022-09-17T17:19:43.738Z,1.20
2022-09-17T17:23:10.096Z,1.40
2022-09-17T17:26:37.068Z,1.13
2022-09-17T17:30:05.542Z,2.50
2022-09-17T17:33:32.471Z,2.37
2022-09-17T17:37:01.062Z,1.63
2022-09-17T17:40:27.714Z,2.53
2022-09-17T17:43:54.423Z,1.70
2022-09-17T17:47:21.634Z,2.10
2022-09-17T17:50:48.073Z,1.90
2022-09-17T17:54:16.281Z,2.20
2022-09-17T17:57:43.109Z,2.00
2022-09-17T18:01:12.868Z,2.33
2022-09-17T18:09:11.844Z,1.37
2022-09-17T18:11:39.714Z,1.90
2022-09-17T18:14:07.595Z,2.50
2022-09-17T18:16:36.113Z,2.60
2022-09-17T18:19:04.054Z,2.63
2022-09-17T18:21:31.890Z,2.50
2022-09-17T18:23:59.852Z,3.47
2022-09-17T18:26:30.324Z,2.83
2022-09-17T18:28:58.763Z,2.43
2022-09-17T18:31:28.701Z,3.30
2022-09-17T18:33:59.301Z,2.70
2022-09-17T18:36:28.649Z,2.13
2022-09-17T18:39:03.528Z,2.63
2022-09-17T18:41:41.585Z,2.10
2022-09-17T18:44:09.934Z,1.93
2022-09-17T18:46:39.405Z,2.57
2022-09-17T18:49:07.406Z,4.27
2022-09-17T18:51:35.431Z,2.77
2022-09-17T18:54:03.950Z,3.23
2022-09-17T18:56:33.593Z,2.30
2022-09-17T18:59:07.800Z,2.07
2022-09-17T19:01:36.369Z,1.80
2022-09-17T19:04:04.992Z,2.60
2022-09-17T19:06:32.878Z,2.00
2022-09-17T19:09:02.177Z,1.87
2022-09-17T19:11:30.288Z,1.43
2022-09-17T19:13:58.758Z,1.77
2022-09-17T19:16:28.746Z,1.60
2022-09-17T19:18:56.662Z,2.50
2022-09-17T19:21:24.565Z,1.47
2022-09-17T19:23:53.821Z,1.80
2022-09-17T19:26:24.035Z,1.80
2022-09-17T19:28:54.419Z,1.93
2022-09-17T19:31:23.121Z,1.73
2022-09-17T19:33:53.122Z,2.30
2022-09-17T19:36:22.332Z,1.73
2022-09-17T19:38:50.466Z,1.70
2022-09-17T19:41:20.149Z,2.07
2022-09-17T19:43:48.606Z,1.50
2022-09-17T19:46:19.350Z,1.43
2022-09-17T19:48:49.009Z,1.77
2022-09-17T19:51:19.759Z,2.50
2022-09-17T19:53:47.762Z,2.33
2022-09-17T19:56:18.763Z,1.43
2022-09-17T19:58:47.315Z,2.37
2022-09-17T20:01:15.900Z,1.40
2022-09-17T20:03:45.362Z,1.80
2022-09-17T20:06:16.079Z,2.60
2022-09-17T20:12:26.808Z,2.00
2022-09-17T20:14:55.201Z,1.70
2022-09-17T20:17:23.063Z,1.20
2022-09-17T20:19:50.965Z,1.80
2022-09-17T20:22:18.878Z,1.50
2022-09-17T20:24:50.907Z,1.60
2022-09-17T20:27:19.190Z,2.00
2022-09-17T20:29:48.902Z,1.00
2022-09-17T20:32:16.864Z,1.30
2022-09-17T20:34:45.331Z,1.53
2022-09-17T20:37:13.965Z,1.40
2022-09-17T20:39:42.417Z,1.20
2022-09-17T20:42:10.339Z,1.20
2022-09-17T20:44:38.275Z,1.50
2022-09-17T20:47:07.788Z,2.07
2022-09-17T20:49:35.723Z,1.23
2022-09-17T20:52:04.819Z,1.00
2022-09-17T20:54:32.763Z,1.37
2022-09-17T20:57:00.638Z,1.17
2022-09-17T20:59:42.483Z,1.10
2022-09-17T21:02:13.732Z,1.13
2022-09-17T21:04:41.717Z,1.90
2022-09-17T21:07:09.602Z,1.20
2022-09-17T21:09:41.908Z,2.10
2022-09-17T21:12:10.012Z,1.80
2022-09-17T21:14:38.349Z,1.00
2022-09-17T21:17:06.310Z,1.17
2022-09-17T21:19:36.037Z,0.97
2022-09-17T21:22:03.900Z,1.20
2022-09-17T21:24:32.146Z,1.00
2022-09-17T21:27:00.062Z,0.93
2022-09-17T21:29:28.338Z,1.17
2022-09-17T21:31:58.866Z,1.77
2022-09-17T21:34:27.352Z,0.90
2022-09-17T21:36:56.818Z,0.97
2022-09-17T21:39:25.044Z,0.97
2022-09-17T21:41:52.913Z,1.23
2022-09-17T21:44:21.164Z,1.10
2022-09-17T21:46:49.743Z,1.07
2022-09-17T21:49:18.811Z,1.00
2022-09-17T21:51:46.806Z,1.03
2022-09-17T21:54:18.273Z,1.20
2022-09-17T21:56:46.922Z,1.30
2022-09-17T21:59:16.808Z,0.90
2022-09-17T22:01:47.039Z,1.20
2022-09-17T22:04:17.147Z,1.20
2022-09-17T22:06:46.172Z,1.00
2022-09-17T22:09:17.955Z,1.27
2022-09-17T22:11:46.351Z,1.00
2022-09-17T22:14:16.271Z,0.90
2022-09-17T22:16:46.267Z,1.00
2022-09-17T22:19:17.092Z,1.20
2022-09-17T22:21:47.384Z,1.60
2022-09-17T22:24:18.166Z,1.10
2022-09-17T22:26:50.759Z,0.87
2022-09-17T22:29:23.853Z,1.10
2022-09-17T22:31:52.185Z,1.77
2022-09-17T22:34:22.727Z,1.00
2022-09-17T22:36:50.795Z,0.90
2022-09-17T22:39:21.827Z,1.50
2022-09-17T22:41:50.165Z,1.10
2022-09-17T22:44:19.615Z,1.37
2022-09-17T22:46:49.427Z,1.20
2022-09-17T22:49:17.750Z,1.20
2022-09-17T22:51:46.658Z,1.20
2022-09-17T22:54:17.531Z,1.30
2022-09-17T22:56:47.623Z,0.70
2022-09-17T22:59:16.343Z,2.00
2022-09-17T23:01:44.277Z,2.53
2022-09-17T23:04:12.665Z,1.20
2022-09-17T23:06:42.487Z,1.10
2022-09-17T23:09:12.764Z,1.37
2022-09-17T23:11:41.194Z,1.30
2022-09-17T23:14:12.832Z,1.00
2022-09-17T23:16:43.107Z,0.97
2022-09-17T23:19:11.961Z,1.27
2022-09-17T23:21:40.157Z,1.13
2022-09-17T23:24:08.922Z,1.30
2022-09-17T23:26:36.849Z,1.23
2022-09-17T23:29:05.956Z,1.30
2022-09-17T23:31:36.297Z,1.20
2022-09-17T23:34:05.736Z,1.63
2022-09-17T23:36:36.152Z,0.93
2022-09-17T23:39:05.156Z,1.20
2022-09-17T23:41:35.062Z,1.53
2022-09-17T23:44:05.078Z,1.30
2022-09-17T23:46:37.878Z,1.40
2022-09-17T23:49:06.945Z,1.20
2022-09-17T23:51:37.387Z,1.40
2022-09-17T23:54:07.189Z,1.20
2022-09-17T23:56:36.447Z,1.40
2022-09-17T23:59:04.875Z,1.17
